Flight Track Log - Related Links

Times and Time Zones

All times are in EDT time to prevent confusion due to time zone crossing. See the UAL4625 flight status page for this flight to view local times or setup timezone preferences in your user account.

Time Position Orientation Groundspeed Altitude Reporting Facility
EDT Latitude Longitude Course Direction KTS MPH feet Rate Location/Type
Fri 06:04:31 AM 35.8164 -84.0772 19° North 197 227 4,300  Level Atlanta Center
Fri 06:05:31 AM 35.8872 -84.0900 352° North 202 232 6,000 2,150 Climbing Atlanta Center
Fri 06:06:00 AM 36.0956 -84.1588 345° North  Level Estimated
Fri 06:06:31 AM 35.9603 -84.1003 354° North 234 269 8,600  Level Atlanta Center
Fri 06:07:00 AM 36.1668 -84.2002 349° North  Level Estimated
Fri 06:07:31 AM 36.0375 -84.1106 354° North 263 303 10,300  Level Atlanta Center
Fri 06:08:00 AM 36.2411 -84.1684 19° North  Level FlightAware Approximate
Fri 06:08:53 AM 36.1567 -84.1269 354° North 315 362 11,600  Level Indianapolis Center
Fri 06:09:53 AM 36.2522 -84.1425 353° North 341 392 13,000 1,339 Climbing Indianapolis Center
Fri 06:10:54 AM 36.3467 -84.1583 352° North 343 395 14,300 1,339 Climbing Indianapolis Center
Fri 06:11:54 AM 36.4408 -84.1728 353° North 343 395 15,700 1,438 Climbing Indianapolis Center
Fri 06:12:55 AM 36.5439 -84.1889 353° North 338 389 17,200 1,091 Climbing Indianapolis Center
Fri 06:13:55 AM 36.6389 -84.2036 353° North 339 390 17,900 843 Climbing Indianapolis Center
Fri 06:14:56 AM 36.7367 -84.2208 352° North 350 403 18,900 992 Climbing Indianapolis Center
Fri 06:15:56 AM 36.8350 -84.2358 353° North 352 405 19,900 942 Climbing Indianapolis Center
Fri 06:16:57 AM 36.9347 -84.2522 353° North 358 412 20,800 934 Climbing Indianapolis Center
Fri 06:17:58 AM 37.0367 -84.2689 353° North 365 420 21,800 992 Climbing Indianapolis Center
Fri 06:18:58 AM 37.1392 -84.2861 352° North 369 425 22,800 942 Climbing Indianapolis Center
Fri 06:19:59 AM 37.2406 -84.3028 353° North 367 422 23,700 942 Climbing Indianapolis Center
Fri 06:20:59 AM 37.3436 -84.3206 352° North 370 426 24,700 942 Climbing Indianapolis Center
Fri 06:22:00 AM 37.4453 -84.3364 353° North 368 423 25,600 934 Climbing Indianapolis Center
Fri 06:23:01 AM 37.5450 -84.3581 350° North 364 419 26,600 942 Climbing Indianapolis Center
Fri 06:24:01 AM 37.6431 -84.3997 341° North 372 428 27,500 942 Climbing Indianapolis Center
Fri 06:25:02 AM 37.7375 -84.4400 341° North 362 417 28,500 942 Climbing Indianapolis Center
Fri 06:26:02 AM 37.8325 -84.4819 341° North 360 414 29,400 942 Climbing Indianapolis Center
Fri 06:27:03 AM 37.9275 -84.5233 341° North 360 414 30,400 934 Climbing Indianapolis Center
Fri 06:28:04 AM 38.0219 -84.5667 340° North 360 414 31,300 942 Climbing Indianapolis Center
Fri 06:29:04 AM 38.1192 -84.6083 341° North 364 419 32,300 942 Climbing Indianapolis Center
Fri 06:30:05 AM 38.2153 -84.6489 342° North 365 420 33,200 942 Climbing Indianapolis Center
Fri 06:31:05 AM 38.3133 -84.6911 341° North 367 422 34,200 942 Climbing Indianapolis Center
Fri 06:32:06 AM 38.4108 -84.7322 342° North 368 423 35,100 893 Climbing Indianapolis Center
Fri 06:33:06 AM 38.5064 -84.7753 341° North 365 420 36,000 446 Climbing Indianapolis Center
Fri 06:34:07 AM 38.6206 -84.8253 341° North 370 426 36,000  Level Indianapolis Center
Fri 06:35:08 AM 38.7114 -84.8672 340° North 385 443 36,000  Level Indianapolis Center
Fri 06:36:08 AM 38.8144 -84.9119 341° North 392 451 36,000  Level Indianapolis Center
Fri 06:37:09 AM 38.9156 -84.9572 341° North 388 447 36,000  Level Indianapolis Center
Fri 06:38:09 AM 39.0161 -85.0019 341° North 386 444 36,000 -298 Level Indianapolis Center
Fri 06:39:10 AM 39.1158 -85.0472 341° North 383 441 35,400 -1,033 Descending Indianapolis Center
Fri 06:40:11 AM 39.2169 -85.0931 341° North 385 443 33,900 -1,438 Descending Indianapolis Center
Fri 06:41:11 AM 39.3192 -85.1389 341° North 389 448 32,500 -1,785 Descending Indianapolis Center
Fri 06:42:12 AM 39.4422 -85.1956 340° North 391 450 30,300 -2,115 Descending Indianapolis Center
Fri 06:43:13 AM 39.5450 -85.2411 341° North 393 452 28,200 -1,140 Descending Indianapolis Center
Fri 06:44:13 AM 39.6497 -85.2892 341° North 398 458 28,000 -298 Descending Indianapolis Center
Fri 06:45:14 AM 39.7564 -85.3372 341° North 406 467 27,600 -639 Descending Indianapolis Center
Fri 06:46:15 AM 39.8633 -85.3872 340° North 410 472 26,700 -787 Descending Indianapolis Center
Fri 06:47:16 AM 39.9697 -85.4350 341° North 409 471 26,000 -347 Descending Indianapolis Center
Fri 06:48:16 AM 40.0781 -85.4856 340° North 414 476 26,000  Level Indianapolis Center
Fri 06:49:17 AM 40.1881 -85.5361 341° North 420 483 26,000  Level Indianapolis Center
Fri 06:50:18 AM 40.2992 -85.5883 340° North 426 490 26,000  Level Indianapolis Center
Fri 06:51:01 AM 40.3767 -85.6578 326° Northwest 426 490 26,000 -350 Level Chicago Center
Fri 06:52:01 AM 40.4611 -85.7672 315° West 430 495 25,400 -793 Descending Chicago Center
Fri 06:53:02 AM 40.5444 -85.8739 316° Northwest 424 488 24,400 -992 Descending Chicago Center
Fri 06:54:02 AM 40.6283 -85.9817 316° Northwest 424 488 23,400 -1,041 Descending Chicago Center
Fri 06:55:03 AM 40.7169 -86.0975 315° West 424 488 22,300 -694 Descending Chicago Center
Fri 06:56:03 AM 40.8008 -86.2108 314° West 428 493 22,000 -149 Descending Chicago Center
Fri 06:57:04 AM 40.8858 -86.3186 316° Northwest 424 488 22,000  Level Chicago Center
Fri 06:58:05 AM 40.9697 -86.4306 315° West 429 494 22,000 -50 Level Chicago Center
Fri 06:59:05 AM 41.0564 -86.5433 316° Northwest 434 499 21,900 -744 Descending Chicago Center
Fri 07:00:06 AM 41.1414 -86.6547 315° West 429 494 20,500 -1,438 Descending Chicago Center
Fri 07:01:06 AM 41.2200 -86.7617 314° West 424 488 19,000 -1,636 Descending Chicago Center
Fri 07:02:07 AM 41.2989 -86.8667 315° West 409 471 17,200 -2,066 Descending Chicago Center
Fri 07:03:08 AM 41.3753 -86.9692 315° West 396 456 14,800 -2,876 Descending Chicago Center
Fri 07:04:08 AM 41.4658 -87.0906 315° West 389 448 11,400 -1,884 Descending Chicago Center
Fri 07:05:09 AM 41.5350 -87.1878 314° West 368 423 11,000 -443 Descending Chicago Center
Fri 07:06:10 AM 41.5989 -87.2903 310° West 363 418 10,500 -496 Descending Chicago Center
Fri 07:07:10 AM 41.6628 -87.3931 310° West 363 418 10,000 -248 Descending Chicago Center
Fri 07:08:11 AM 41.7247 -87.4942 309° West 356 410 10,000 -49 Level Chicago Center
Fri 07:09:12 AM 41.7853 -87.5894 310° West 339 390 9,900 -1,041 Descending Chicago Center
Fri 07:10:12 AM 41.8353 -87.6689 310° West 289 333 7,900 -1,438 Descending Chicago Center
Fri 07:11:13 AM 41.9167 -87.7167 336° Northwest 285 328 7,000 -992 Descending Chicago TRACON
Fri 07:12:13 AM 41.9833 -87.7167 360° North 270 311 5,900 -1,429 Descending Chicago TRACON
Fri 07:13:19 AM 42.0667 -87.7333 352° North 235 270 4,000 -1,348 Descending Chicago TRACON
Fri 07:14:31 AM 42.0667 -87.8000 270° West 186 214 2,800 -1,000 Descending Chicago TRACON
Fri 07:15:31 AM 42.0500 -87.8500 246° West 144 166 1,800 -866 Descending Chicago TRACON
Fri 07:16:08 AM 42.0333 -87.8667 217° Southwest 124 143 1,400 -706 Descending Chicago TRACON
Fri 07:16:56 AM 42.0000 -87.8833 200° South 127 146 800 -750 Descending Chicago TRACON

Login

Don't have an account? Register now (free) for customized features, flight alerts, and more!